createdAt,value
2019-04-23T00:00:15.819Z,5.47
2019-04-23T00:02:51.221Z,4.60
2019-04-23T00:05:35.450Z,4.67
2019-04-23T00:07:56.148Z,4.73
2019-04-23T00:10:28.603Z,4.93
2019-04-23T00:12:59.192Z,5.03
2019-04-23T00:21:13.740Z,4.63
2019-04-23T00:23:53.407Z,3.93
2019-04-23T00:26:25.719Z,5.33
2019-04-23T00:31:24.000Z,4.83
2019-04-23T00:33:57.342Z,5.20
2019-04-23T00:36:44.345Z,5.57
2019-04-23T00:39:01.332Z,5.43
2019-04-23T00:41:42.886Z,5.40
2019-04-23T00:44:08.699Z,5.63
2019-04-23T00:46:41.454Z,6.17
2019-04-23T00:49:21.298Z,5.67
2019-04-23T00:51:50.094Z,5.73
2019-04-23T00:54:28.771Z,5.67
2019-04-23T00:57:01.374Z,5.50
2019-04-23T00:59:31.604Z,5.73
2019-04-23T01:02:03.887Z,5.60
2019-04-23T01:04:32.784Z,6.23
2019-04-23T01:07:04.461Z,5.80
2019-04-23T01:09:45.690Z,6.53
2019-04-23T01:12:14.125Z,5.40
2019-04-23T01:14:51.636Z,5.70
2019-04-23T01:17:26.649Z,6.70
2019-04-23T01:19:54.675Z,6.40
2019-04-23T01:22:10.473Z,7.30
2019-04-23T01:24:48.290Z,7.13
2019-04-23T01:30:19.652Z,7.13
2019-04-23T01:32:51.825Z,7.73
2019-04-23T01:35:33.303Z,8.10
2019-04-23T01:37:58.388Z,8.63
2019-04-23T01:40:38.831Z,7.33
2019-04-23T01:43:03.005Z,8.40
2019-04-23T01:45:31.310Z,7.50
2019-04-23T01:48:06.352Z,8.47
2019-04-23T01:50:50.128Z,7.77
2019-04-23T01:53:18.379Z,8.77
2019-04-23T01:55:51.200Z,10.30
2019-04-23T01:58:32.249Z,9.37
2019-04-23T02:00:56.311Z,9.33
2019-04-23T02:03:28.019Z,9.07
2019-04-23T02:06:00.291Z,8.63
2019-04-23T02:08:32.292Z,9.07
2019-04-23T02:11:21.603Z,9.90
2019-04-23T02:13:45.526Z,9.77
2019-04-23T02:16:13.430Z,9.93
2019-04-23T02:18:50.759Z,10.13
2019-04-23T02:21:41.387Z,10.60
2019-04-23T02:24:09.147Z,10.70
2019-04-23T02:26:46.434Z,10.57
2019-04-23T02:29:28.639Z,11.40
2019-04-23T02:34:42.875Z,11.93
2019-04-23T02:37:22.545Z,11.73
2019-04-23T02:39:40.146Z,12.13
2019-04-23T02:42:23.280Z,11.73
2019-04-23T02:47:17.415Z,11.53
2019-04-23T02:50:31.526Z,12.13
2019-04-23T02:57:24.719Z,13.33
2019-04-23T03:05:00.945Z,13.63
2019-04-23T03:07:42.728Z,13.90
2019-04-23T03:15:21.332Z,16.67
2019-04-23T03:21:15.520Z,14.80
2019-04-23T03:26:09.172Z,15.60
2019-04-23T03:41:23.597Z,16.33
2019-04-23T03:43:47.000Z,14.70
2019-04-23T03:48:51.173Z,15.23
2019-04-23T03:56:52.621Z,16.00
2019-04-23T03:59:11.364Z,16.53
2019-04-23T04:06:54.681Z,17.67
2019-04-23T04:09:28.697Z,17.57
2019-04-23T04:11:44.989Z,17.43
2019-04-23T04:14:34.282Z,17.07
2019-04-23T04:19:38.257Z,18.17
2019-04-23T04:27:05.446Z,17.03
2019-04-23T04:32:15.040Z,16.87
2019-04-23T04:37:36.207Z,17.77
2019-04-23T04:47:28.430Z,18.23
2019-04-23T04:50:10.313Z,15.83
2019-04-23T04:57:52.355Z,15.70
2019-04-23T05:00:39.879Z,14.43
2019-04-23T05:03:17.413Z,14.53
2019-04-23T05:05:55.292Z,15.60
2019-04-23T05:07:54.345Z,16.10
2019-04-23T05:13:22.689Z,12.97
2019-04-23T05:15:44.886Z,14.23
2019-04-23T05:18:39.943Z,15.00
2019-04-23T05:21:03.599Z,15.47
2019-04-23T05:23:50.369Z,14.67
2019-04-23T05:26:24.795Z,15.50
2019-04-23T05:31:23.148Z,16.33
2019-04-23T05:34:06.051Z,16.50
2019-04-23T05:36:52.167Z,14.43
2019-04-23T05:39:12.147Z,14.83
2019-04-23T05:41:36.490Z,15.30
2019-04-23T05:44:15.711Z,13.90
2019-04-23T05:54:27.700Z,13.10
2019-04-23T05:56:55.106Z,11.90
2019-04-23T05:59:41.876Z,12.90
2019-04-23T06:02:05.484Z,13.67
2019-04-23T06:04:43.113Z,12.87
2019-04-23T06:07:28.906Z,12.17
2019-04-23T06:09:52.071Z,12.40
2019-04-23T06:12:18.736Z,11.13
2019-04-23T06:14:57.538Z,10.77
2019-04-23T06:17:32.337Z,12.00
2019-04-23T06:22:48.087Z,12.70
2019-04-23T06:25:22.047Z,11.57
2019-04-23T06:27:56.006Z,11.90
2019-04-23T06:30:40.624Z,12.33
2019-04-23T06:33:21.064Z,11.47
2019-04-23T06:35:54.843Z,12.17
2019-04-23T06:38:40.437Z,12.60
2019-04-23T06:40:54.018Z,12.47
2019-04-23T06:43:56.308Z,12.07
2019-04-23T06:46:24.211Z,10.07
2019-04-23T06:48:47.748Z,11.97
2019-04-23T06:51:31.119Z,12.27
2019-04-23T06:53:49.855Z,10.77
2019-04-23T06:56:36.450Z,11.40
2019-04-23T06:59:05.936Z,11.20
2019-04-23T07:01:50.549Z,11.47
2019-04-23T07:04:12.713Z,9.40
2019-04-23T07:06:58.226Z,10.67
2019-04-23T07:09:13.443Z,10.80
2019-04-23T07:14:33.938Z,11.03
2019-04-23T07:16:58.355Z,11.20
2019-04-23T07:22:12.975Z,10.63
2019-04-23T07:24:43.680Z,10.97
2019-04-23T07:27:13.539Z,10.97
2019-04-23T07:29:56.594Z,12.83
2019-04-23T07:32:15.189Z,11.77
2019-04-23T07:35:02.467Z,11.67
2019-04-23T07:37:32.807Z,11.43
2019-04-23T07:40:27.544Z,10.93
2019-04-23T07:43:16.666Z,10.67
2019-04-23T07:46:10.379Z,10.00
2019-04-23T07:48:37.135Z,12.40
2019-04-23T07:51:17.191Z,11.40
2019-04-23T07:53:56.684Z,11.30
2019-04-23T07:56:36.206Z,11.30
2019-04-23T07:59:03.912Z,11.63
2019-04-23T08:01:29.834Z,10.93
2019-04-23T08:04:05.347Z,11.77
2019-04-23T08:06:40.943Z,10.30
2019-04-23T08:09:08.829Z,11.07
2019-04-23T08:12:07.870Z,9.87
2019-04-23T08:14:13.698Z,11.77
2019-04-23T08:17:00.697Z,9.63
2019-04-23T08:19:40.983Z,11.87
2019-04-23T08:22:12.517Z,11.47
2019-04-23T08:27:45.316Z,9.77
2019-04-23T08:30:09.766Z,10.80
2019-04-23T08:32:51.215Z,11.97
2019-04-23T08:35:27.240Z,10.97
2019-04-23T08:38:12.297Z,11.10
2019-04-23T08:40:27.588Z,10.77
2019-04-23T08:43:11.006Z,9.40
2019-04-23T08:45:40.008Z,12.00
2019-04-23T08:48:21.781Z,11.63
2019-04-23T08:50:57.856Z,11.27
2019-04-23T08:53:36.190Z,11.17
2019-04-23T08:56:05.074Z,10.73
2019-04-23T08:58:43.950Z,10.50
2019-04-23T09:01:10.652Z,11.60
2019-04-23T09:04:00.484Z,11.57
2019-04-23T09:06:22.208Z,9.87
2019-04-23T09:08:56.590Z,11.70
2019-04-23T09:11:41.654Z,10.70
2019-04-23T09:14:05.595Z,10.97
2019-04-23T09:16:51.470Z,10.13
2019-04-23T09:19:21.633Z,10.70
2019-04-23T09:22:01.993Z,9.70
2019-04-23T09:24:32.954Z,10.20
2019-04-23T09:27:09.804Z,9.97
2019-04-23T09:29:47.651Z,10.73
2019-04-23T09:35:20.235Z,10.40
2019-04-23T09:38:07.041Z,9.77
2019-04-23T09:43:53.892Z,9.40
2019-04-23T09:49:14.841Z,10.57
2019-04-23T09:51:54.470Z,9.70
2019-04-23T09:54:46.301Z,10.40
2019-04-23T09:56:55.256Z,9.30
2019-04-23T10:01:57.417Z,8.43
2019-04-23T10:04:26.596Z,10.63
2019-04-23T10:07:05.460Z,11.17
2019-04-23T10:09:25.811Z,9.67
2019-04-23T10:12:14.631Z,8.43
2019-04-23T10:14:59.225Z,9.73
2019-04-23T10:17:24.229Z,10.50
2019-04-23T10:19:56.241Z,9.97
2019-04-23T10:22:35.824Z,10.23
2019-04-23T10:25:11.007Z,8.67
2019-04-23T10:27:53.286Z,10.90
2019-04-23T10:32:53.824Z,8.80
2019-04-23T10:35:39.469Z,12.40
2019-04-23T10:38:04.420Z,9.73
2019-04-23T10:40:37.761Z,10.27
2019-04-23T10:43:09.266Z,10.60
2019-04-23T10:46:32.610Z,11.40
2019-04-23T10:58:35.286Z,9.67
2019-04-23T11:01:14.993Z,10.00
2019-04-23T11:03:58.840Z,9.23
2019-04-23T11:06:30.700Z,9.03
2019-04-23T11:09:04.983Z,9.23
2019-04-23T11:11:38.020Z,9.63
2019-04-23T11:14:18.302Z,8.97
2019-04-23T11:16:59.890Z,9.77
2019-04-23T11:19:25.799Z,9.43
2019-04-23T11:22:06.183Z,9.43
2019-04-23T11:29:46.797Z,9.33
2019-04-23T11:37:50.446Z,8.67
2019-04-23T11:40:15.606Z,8.90
2019-04-23T11:42:52.931Z,9.07
2019-04-23T11:48:22.423Z,8.80
2019-04-23T11:53:06.676Z,8.73
2019-04-23T11:58:26.946Z,8.27
2019-04-23T12:01:23.619Z,8.63
2019-04-23T12:04:04.993Z,8.77
2019-04-23T12:06:50.868Z,8.07
2019-04-23T12:09:43.021Z,7.93
2019-04-23T12:12:10.404Z,9.00
2019-04-23T12:17:35.301Z,8.90
2019-04-23T12:22:30.111Z,10.07
2019-04-23T12:27:31.306Z,8.73
2019-04-23T12:30:08.588Z,9.13
2019-04-23T12:35:22.459Z,8.67
2019-04-23T12:37:44.819Z,7.50
2019-04-23T12:40:36.684Z,8.47
2019-04-23T12:45:38.859Z,8.67
2019-04-23T12:48:44.037Z,8.03
2019-04-23T12:56:06.330Z,8.37
2019-04-23T13:01:05.263Z,8.77
2019-04-23T13:03:41.484Z,8.20
2019-04-23T13:06:13.618Z,6.77
2019-04-23T13:09:11.644Z,7.87
2019-04-23T13:11:33.147Z,7.63
2019-04-23T13:14:00.826Z,7.80
2019-04-23T13:16:38.149Z,8.30
2019-04-23T13:19:18.206Z,7.97
2019-04-23T13:24:38.631Z,8.13
2019-04-23T13:27:10.778Z,8.80
2019-04-23T13:29:50.158Z,7.90
2019-04-23T13:32:23.898Z,7.70
2019-04-23T13:34:58.889Z,7.07
2019-04-23T13:37:37.601Z,7.77
2019-04-23T13:39:58.266Z,9.10
2019-04-23T13:45:27.495Z,7.53
2019-04-23T13:47:53.207Z,7.27
2019-04-23T13:50:33.023Z,7.17
2019-04-23T13:53:07.612Z,8.30
2019-04-23T13:55:24.860Z,6.80
2019-04-23T14:01:00.946Z,7.63
2019-04-23T14:03:23.318Z,6.93
2019-04-23T14:06:10.686Z,8.23
2019-04-23T14:11:11.598Z,7.90
2019-04-23T14:13:49.616Z,7.40
2019-04-23T14:16:23.140Z,7.63
2019-04-23T14:26:32.638Z,9.50
2019-04-23T14:29:02.163Z,8.00
2019-04-23T14:31:54.985Z,7.53
2019-04-23T14:34:11.643Z,7.97
2019-04-23T14:36:50.270Z,8.03
2019-04-23T14:39:28.083Z,7.83
2019-04-23T14:41:53.654Z,7.63
2019-04-23T14:44:23.618Z,8.30
2019-04-23T14:47:13.291Z,8.03
2019-04-23T14:49:45.509Z,8.80
2019-04-23T14:52:14.461Z,7.67
2019-04-23T14:55:22.626Z,8.20
2019-04-23T15:00:01.636Z,8.97
2019-04-23T15:02:36.349Z,7.70
2019-04-23T15:05:05.120Z,7.50
2019-04-23T15:07:34.385Z,8.00
2019-04-23T15:10:18.721Z,8.00
2019-04-23T15:12:48.620Z,7.90
2019-04-23T15:15:27.426Z,7.23
2019-04-23T15:17:58.131Z,8.00
2019-04-23T15:20:39.789Z,9.00
2019-04-23T15:23:33.546Z,8.13
2019-04-23T15:26:03.612Z,8.27
2019-04-23T15:28:07.475Z,8.80
2019-04-23T15:30:57.086Z,7.90
2019-04-23T15:36:12.951Z,8.20
2019-04-23T15:38:43.335Z,7.60
2019-04-23T15:41:23.439Z,8.67
2019-04-23T15:43:49.495Z,8.20
2019-04-23T15:46:26.866Z,7.90
2019-04-23T15:49:01.482Z,9.07
2019-04-23T15:54:02.759Z,7.90
2019-04-23T16:01:42.603Z,8.27
2019-04-23T16:04:07.241Z,8.43
2019-04-23T16:06:45.920Z,7.67
2019-04-23T16:09:57.377Z,9.20
2019-04-23T16:12:28.099Z,8.30
2019-04-23T16:15:02.524Z,8.10
2019-04-23T16:20:17.192Z,8.00
2019-04-23T16:22:39.704Z,7.90
2019-04-23T16:25:15.586Z,8.53
2019-04-23T16:27:49.161Z,8.23
2019-04-23T16:30:19.117Z,8.97
2019-04-23T16:35:58.520Z,9.10
2019-04-23T16:40:57.067Z,9.43
2019-04-23T16:43:34.756Z,8.50
2019-04-23T16:46:11.473Z,8.93
2019-04-23T16:49:10.161Z,8.83
2019-04-23T16:54:01.433Z,9.47
2019-04-23T16:56:41.992Z,8.40
2019-04-23T17:01:48.881Z,8.67
2019-04-23T17:04:24.747Z,9.27
2019-04-23T17:06:52.041Z,9.00
2019-04-23T17:09:29.298Z,8.43
2019-04-23T17:12:07.769Z,8.93
2019-04-23T17:14:33.590Z,9.33
2019-04-23T17:17:08.355Z,9.20
2019-04-23T17:19:47.102Z,8.63
2019-04-23T17:22:17.699Z,9.33
2019-04-23T17:25:15.320Z,8.97
2019-04-23T17:27:52.490Z,8.87
2019-04-23T17:30:22.177Z,10.53
2019-04-23T17:33:13.410Z,9.83
2019-04-23T17:38:26.426Z,9.67
2019-04-23T17:41:05.715Z,9.57
2019-04-23T17:43:47.077Z,9.37
2019-04-23T17:46:14.699Z,9.67
2019-04-23T17:51:40.963Z,9.53
2019-04-23T17:54:16.221Z,10.00
2019-04-23T17:57:01.539Z,10.40
2019-04-23T17:59:28.133Z,11.17
2019-04-23T18:02:18.418Z,11.20
2019-04-23T18:04:33.284Z,10.33
2019-04-23T18:07:29.473Z,9.43
2019-04-23T18:10:22.943Z,11.00
2019-04-23T18:12:43.539Z,10.87
2019-04-23T18:15:15.652Z,11.37
2019-04-23T18:17:54.802Z,10.67
2019-04-23T18:20:58.323Z,10.60
2019-04-23T18:23:22.184Z,10.83
2019-04-23T18:26:05.414Z,10.87
2019-04-23T18:28:37.663Z,12.00
2019-04-23T18:31:13.142Z,12.57
2019-04-23T18:34:08.764Z,11.70
2019-04-23T18:36:19.610Z,12.73
2019-04-23T18:38:59.812Z,11.23
2019-04-23T18:41:33.768Z,11.97
2019-04-23T18:44:16.315Z,11.97
2019-04-23T18:46:43.513Z,12.17
2019-04-23T18:49:22.460Z,12.40
2019-04-23T18:51:55.068Z,11.97
2019-04-23T18:54:25.019Z,12.27
2019-04-23T18:57:09.315Z,12.93
2019-04-23T18:59:42.305Z,13.20
2019-04-23T19:02:20.630Z,13.40
2019-04-23T19:05:08.546Z,13.47
2019-04-23T19:08:01.036Z,13.20
2019-04-23T19:10:36.177Z,13.00
2019-04-23T19:13:11.238Z,14.63
2019-04-23T19:18:18.735Z,13.23
2019-04-23T19:21:00.935Z,14.53
2019-04-23T19:23:34.866Z,14.40
2019-04-23T19:25:54.637Z,13.17
2019-04-23T19:28:41.094Z,12.93
2019-04-23T19:31:26.151Z,14.03
2019-04-23T19:34:13.904Z,14.00
2019-04-23T19:39:17.629Z,13.23
2019-04-23T19:41:55.666Z,13.00
2019-04-23T19:44:20.109Z,14.33
2019-04-23T19:49:26.847Z,13.50
2019-04-23T19:52:00.896Z,14.17
2019-04-23T19:54:34.359Z,13.37
2019-04-23T20:02:22.062Z,14.20
2019-04-23T20:07:32.836Z,15.80
2019-04-23T20:13:45.683Z,14.77
2019-04-23T20:18:50.543Z,14.47
2019-04-23T20:21:13.239Z,15.77
2019-04-23T20:24:04.694Z,14.43
2019-04-23T20:34:40.142Z,15.17
2019-04-23T20:39:44.266Z,16.47
2019-04-23T20:52:30.555Z,14.13
2019-04-23T20:58:05.507Z,16.23
2019-04-23T21:00:27.497Z,15.90
2019-04-23T21:03:25.696Z,15.43
2019-04-23T21:05:32.966Z,15.73
2019-04-23T21:10:40.394Z,16.87
2019-04-23T21:13:27.779Z,15.93
2019-04-23T21:18:33.082Z,16.33
2019-04-23T21:23:32.177Z,16.27
2019-04-23T21:26:00.098Z,16.63
2019-04-23T21:28:44.358Z,16.23
2019-04-23T21:31:21.143Z,15.57
2019-04-23T21:33:57.221Z,15.83
2019-04-23T21:36:25.224Z,15.43
2019-04-23T21:39:53.509Z,16.33
2019-04-23T21:42:33.115Z,16.03
2019-04-23T21:44:52.872Z,17.60
2019-04-23T21:47:42.627Z,16.90
2019-04-23T21:52:34.803Z,16.10
2019-04-23T21:55:03.631Z,15.27
2019-04-23T22:00:08.304Z,16.73
2019-04-23T22:02:54.770Z,16.87
2019-04-23T22:05:26.920Z,18.17
2019-04-23T22:07:58.150Z,16.23
2019-04-23T22:10:27.806Z,15.70
2019-04-23T22:13:09.587Z,16.53
2019-04-23T22:15:44.965Z,17.33
2019-04-23T22:18:09.456Z,18.10
2019-04-23T22:20:44.034Z,16.37
2019-04-23T22:23:12.628Z,17.20
2019-04-23T22:25:51.628Z,17.27
2019-04-23T22:28:16.503Z,18.03
2019-04-23T22:30:54.766Z,17.27
2019-04-23T22:36:06.261Z,16.93
2019-04-23T22:38:29.547Z,17.10
2019-04-23T22:43:33.651Z,17.13
2019-04-23T22:46:08.565Z,17.13
2019-04-23T22:49:06.343Z,16.30
2019-04-23T22:51:41.598Z,16.17
2019-04-23T22:56:38.968Z,16.40
2019-04-23T22:59:26.764Z,15.77
2019-04-23T23:01:49.938Z,17.97
2019-04-23T23:11:54.275Z,16.20
2019-04-23T23:16:57.177Z,16.53
2019-04-23T23:19:40.535Z,15.87
2019-04-23T23:24:39.360Z,16.67
2019-04-23T23:27:05.508Z,17.23
2019-04-23T23:30:06.414Z,16.23
2019-04-23T23:32:31.744Z,16.93
2019-04-23T23:37:28.458Z,16.57
2019-04-23T23:40:14.714Z,17.03
2019-04-23T23:42:34.728Z,17.03
2019-04-23T23:45:19.641Z,17.00
2019-04-23T23:47:37.900Z,16.47
2019-04-23T23:50:21.534Z,18.90
2019-04-23T23:53:02.509Z,16.13
2019-04-23T23:55:25.009Z,16.77
2019-04-23T23:57:50.979Z,16.30
